메인 페이지
METAR-TAF:

METAR-TAF

공항 :

Richard Lloyd Jones Jr. Airport

털사, 오클라호마, 미국

위도: 36-02-33N, 경도: 095-59-22W, 고도: 194m

현재 날씨관측

예보는 15분 전, 21:53시(UTC)에 발표되었습니다.
북북동9kt
온도 12°C
습도 62%
기압 1018 hPa
시정: 16.1km
고도 2100ft 상공 구름 조금
고도 2700ft 상공 흐림

METAR: KRVS 252153Z 02009KT 10SM FEW021 OVC027 12/05 A3006 RMK AO2 SLP183 T01170050

시각: 17:08 (22:08 UTC)

예보

예보는 2 시간 44분 전, 19:24시(UTC)에 발표되었습니다.
예보 대상 시간: 25일 19시부터 26일 18시까지 (UTC)
7kt
시정: 10km
고도 2000ft 상공 흐림
일시적
25일 19시부터 25일 23시까지 (UTC)
고도 2000ft 상공 구름 보통
고도 3500ft 상공 구름 많음
26일 0100시부터 (UTC)
10kt
시정: 10km
고도 1500ft 상공 흐림
26일 0900시부터 (UTC)
11kt, 순간 최대 풍속 18kt
시정: 6.4km
고도 800ft 상공 흐림
약한비, 박무

TAF: KRVS 251924Z 2519/2618 36007KT P6SM OVC020 TEMPO 2519/2523 SCT020 BKN035 FM260100 01010KT P6SM OVC015 FM260900 01011G18KT 4SM -RA BR OVC008

4,000개 이상의 공항 관측 자료 및 예보 (METAR 및 TAF 보고).

지도상에서 검색 가능한 기상관측소가 노란 점과 빨간 점으로 표시되어 있습니다.

기상관측소 명을 보려면 표시 위로 마우스를 이동하세요.

날씨 관측과 예보를 보려면 클릭하세요.

지도 변경 : 확대하려면 엑스 표시가 있는 녹색 버튼, 축소하려면 빼기 표시가 있는 녹색 버튼, 다음 페이지의 지도를 보려면 녹색 화살표를 클릭하세요.


METAR-TAF: